Time;durP1;ratioP1;P1;durP2;ratioP2;P2;SDS_P1;SDS_P2;PMS_P1;PMS_P2;Temp;Humidity;BMP_temperature;BMP_pressure;BME280_temperature;BME280_humidity;BME280_pressure;Samples;Min_cycle;Max_cycle;Signal;HPM_P1;HPM_P2
2023/05/27 00:00:13;;;;;;;10.73;3.70;;;;;;;7.20;73.90;102771.13;5059609;28;19912;-88
2023/05/27 00:02:38;;;;;;;12.35;3.50;;;;;;;7.18;74.15;102763.22;5062133;28;20152;-89
2023/05/27 00:05:03;;;;;;;;;;;;;;;7.16;73.70;102759.81;5055855;28;20044;-88
2023/05/27 00:07:29;;;;;;;15.02;3.45;;;;;;;7.13;74.06;102766.28;5046659;28;19958;-87
2023/05/27 00:09:54;;;;;;;;;;;;;;;7.08;73.82;102754.25;5057977;28;20046;-89
2023/05/27 00:12:20;;;;;;;14.48;3.83;;;;;;;7.05;73.97;102768.75;5045401;28;20276;-89
2023/05/27 00:14:45;;;;;;;;;;;;;;;7.01;74.87;102758.41;5053167;28;20025;-89
2023/05/27 00:17:14;;;;;;;10.63;3.67;;;;;;;6.93;75.00;102767.94;5049301;28;20129;-89
2023/05/27 00:19:44;;;;;;;10.90;3.40;;;;;;;6.92;75.26;102762.69;5045694;28;20037;-89
2023/05/27 00:22:10;;;;;;;12.23;3.67;;;;;;;6.89;74.86;102763.78;5048033;28;20558;-89
2023/05/27 00:24:37;;;;;;;;;;;;;;;6.87;75.61;102764.91;5048050;28;20096;-88
2023/05/27 00:27:02;;;;;;;9.07;3.42;;;;;;;6.83;75.76;102761.59;5050007;28;19916;-88
2023/05/27 00:29:28;;;;;;;;;;;;;;;6.81;75.98;102758.19;5051572;28;20131;-88
2023/05/27 00:31:53;;;;;;;15.23;3.80;;;;;;;6.74;75.79;102755.16;5042806;28;19970;-88
2023/05/27 00:34:18;;;;;;;;;;;;;;;6.72;76.28;102748.25;5042420;28;20053;-90
2023/05/27 00:36:44;;;;;;;13.33;4.13;;;;;;;6.71;76.50;102750.06;5048914;28;19919;-87
2023/05/27 00:39:10;;;;;;;;;;;;;;;6.67;76.20;102748.63;5050263;28;20032;-88
2023/05/27 00:41:42;;;;;;;11.30;3.80;;;;;;;6.63;76.65;102756.03;5051808;28;19927;-89
2023/05/27 00:44:07;;;;;;;12.15;4.35;;;;;;;6.60;76.77;102750.09;5042670;28;20029;-89
2023/05/27 00:46:35;;;;;;;;;;;;;;;6.57;76.70;102751.19;5057440;28;20025;-90
2023/05/27 00:49:00;;;;;;;12.00;4.15;;;;;;;6.53;77.25;102747.88;5030575;28;20042;-89
2023/05/27 00:51:26;;;;;;;10.77;3.70;;;;;;;6.52;77.06;102761.41;5050728;28;20100;-89
2023/05/27 00:53:55;;;;;;;9.77;4.10;;;;;;;6.44;77.57;102759.34;5032498;28;20036;-89
2023/05/27 00:56:22;;;;;;;10.50;3.70;;;;;;;6.41;77.99;102748.88;5048516;28;20326;-90
2023/05/27 00:58:48;;;;;;;10.13;3.38;;;;;;;6.40;77.92;102749.84;5050778;28;20036;-90
2023/05/27 01:01:13;;;;;;;;;;;;;;;6.38;78.27;102765.19;5049119;28;20127;-89
2023/05/27 01:03:41;;;;;;;11.00;3.90;;;;;;;6.32;78.03;102749.63;5045432;28;20364;-89
2023/05/27 01:06:36;;;;;;;12.50;4.10;;;;;;;6.28;78.46;102745.50;5033431;28;20248;-89
2023/05/27 01:09:13;;;;;;;12.05;3.72;;;;;;;6.22;78.44;102745.00;5019944;28;20028;-89
2023/05/27 01:11:42;;;;;;;14.63;4.30;;;;;;;6.15;78.75;102749.16;5033834;28;20542;-89
2023/05/27 01:14:10;;;;;;;11.63;3.70;;;;;;;6.14;79.22;102742.09;5043055;28;20041;-89
2023/05/27 01:16:39;;;;;;;9.65;3.67;;;;;;;6.15;79.51;102743.78;5031068;23;20050;-89
2023/05/27 01:19:08;;;;;;;14.20;3.90;;;;;;;6.07;79.51;102741.72;4984369;28;20027;-89
2023/05/27 01:21:36;;;;;;;12.73;4.63;;;;;;;6.12;79.38;102733.34;4982771;28;20031;-89
2023/05/27 01:24:14;;;;;;;11.00;3.88;;;;;;;6.05;79.67;102732.09;4973882;28;20045;-88
2023/05/27 01:26:40;;;;;;;17.17;4.10;;;;;;;5.97;79.86;102723.81;5000131;28;20030;-88
2023/05/27 01:29:06;;;;;;;;;;;;;;;6.02;79.90;102729.66;4993275;28;20025;-88
2023/05/27 01:32:24;;;;;;;19.83;4.28;;;;;;;5.98;79.88;102731.69;4997593;28;19922;-88
2023/05/27 01:35:17;;;;;;;10.60;4.05;;;;;;;5.96;80.23;102728.28;4929401;29;20036;-88
2023/05/27 01:37:52;;;;;;;13.95;4.22;;;;;;;5.92;80.23;102710.78;4902519;29;20682;-88
2023/05/27 01:40:17;;;;;;;14.38;4.72;;;;;;;5.91;80.06;102717.13;4981452;28;20111;-88
2023/05/27 01:42:43;;;;;;;14.25;4.70;;;;;;;5.91;80.68;102717.13;4982668;28;20038;-89
2023/05/27 01:45:14;;;;;;;13.27;4.82;;;;;;;5.85;80.67;102726.47;4986817;28;20023;-88
2023/05/27 01:47:55;;;;;;;11.73;4.72;;;;;;;5.76;80.70;102705.81;4994327;28;20026;-89
2023/05/27 01:50:33;;;;;;;10.27;4.70;;;;;;;5.77;80.95;102723.53;4996968;28;20034;-88
2023/05/27 01:53:11;;;;;;;13.20;4.28;;;;;;;5.66;81.18;102712.81;5005416;28;20479;-88
2023/05/27 01:55:37;;;;;;;13.00;4.20;;;;;;;5.66;81.33;102715.47;5000188;28;20034;-89
2023/05/27 01:58:11;;;;;;;14.55;4.35;;;;;;;5.67;81.77;102719.88;4990535;28;20049;-89
2023/05/27 02:03:09;;;;;;;12.63;4.43;;;;;;;5.55;81.90;102713.66;5046040;23;20053;-87
2023/05/27 02:05:40;;;;;;;12.32;4.40;;;;;;;5.51;81.81;102705.00;5029314;28;20168;-87
2023/05/27 02:08:37;;;;;;;13.30;4.93;;;;;;;5.51;82.43;102706.84;5025651;28;20029;-87
2023/05/27 02:11:09;;;;;;;13.17;4.43;;;;;;;5.51;82.60;102707.69;5029741;28;21805;-87
2023/05/27 02:13:36;;;;;;;13.93;4.43;;;;;;;5.53;82.57;102715.59;5029686;28;20595;-86
2023/05/27 02:18:50;;;;;;;12.18;4.38;;;;;;;5.38;82.86;102712.25;5028937;28;20472;-86
2023/05/27 02:21:21;;;;;;;12.23;4.70;;;;;;;5.37;83.01;102700.75;5009644;28;20028;-87
2023/05/27 02:23:59;;;;;;;11.50;4.60;;;;;;;5.31;83.29;102706.53;5050954;28;20029;-87
2023/05/27 02:26:25;;;;;;;18.50;5.60;;;;;;;5.30;83.35;102708.34;5041139;28;20029;-86
2023/05/27 02:29:02;;;;;;;11.65;4.90;;;;;;;5.25;83.22;102715.00;5033896;28;20068;-87
2023/05/27 02:31:42;;;;;;;14.95;4.97;;;;;;;5.14;83.60;102715.81;5031388;28;20034;-86
2023/05/27 02:34:10;;;;;;;14.52;4.75;;;;;;;5.11;83.81;102721.41;5030044;28;20029;-87
2023/05/27 02:36:44;;;;;;;12.27;4.75;;;;;;;5.06;83.73;102719.06;5029321;28;20100;-87
2023/05/27 02:39:10;;;;;;;16.83;4.70;;;;;;;4.99;83.82;102723.16;5031291;28;20026;-87
2023/05/27 02:41:41;;;;;;;14.77;4.80;;;;;;;4.89;83.74;102720.31;5029587;28;20022;-86
2023/05/27 02:44:07;;;;;;;13.05;4.50;;;;;;;4.97;84.24;102725.09;5026763;28;20041;-86
2023/05/27 02:46:32;;;;;;;15.98;5.20;;;;;;;5.00;84.61;102724.88;5012391;28;20049;-88
2023/05/27 02:49:01;;;;;;;16.55;5.25;;;;;;;5.04;84.82;102725.47;5029616;28;20021;-88
2023/05/27 02:51:28;;;;;;;12.98;4.95;;;;;;;5.07;84.44;102725.25;5029665;28;20064;-87
2023/05/27 02:53:53;;;;;;;13.73;5.28;;;;;;;5.08;84.86;102726.97;5030939;28;20017;-86
2023/05/27 02:56:25;;;;;;;15.25;5.10;;;;;;;5.05;84.88;102722.69;5031779;28;20041;-88
2023/05/27 02:59:09;;;;;;;11.40;4.80;;;;;;;5.04;84.89;102715.63;5027110;28;20109;-88
2023/05/27 03:01:35;;;;;;;11.40;5.10;;;;;;;5.00;84.51;102717.69;5031231;28;20044;-88
2023/05/27 03:04:00;;;;;;;12.65;5.30;;;;;;;4.93;84.78;102723.59;5029846;28;20037;-88
2023/05/27 03:06:26;;;;;;;14.60;5.55;;;;;;;4.91;85.09;102722.88;5026429;28;20458;-86
2023/05/27 03:08:53;;;;;;;;;;;;;;;4.89;85.55;102716.78;5031361;28;20029;-87
2023/05/27 03:11:19;;;;;;;12.77;5.60;;;;;;;4.84;85.57;102722.47;5011618;28;19967;-86
2023/05/27 03:14:28;;;;;;;14.43;5.35;;;;;;;4.90;85.87;102724.69;5030107;28;20029;-86
2023/05/27 03:17:00;;;;;;;16.42;5.10;;;;;;;4.85;85.10;102706.31;5038034;28;20049;-87
2023/05/27 03:19:25;;;;;;;15.40;4.70;;;;;;;4.86;85.68;102720.53;5071027;28;20128;-87
2023/05/27 03:21:51;;;;;;;14.88;5.90;;;;;;;4.82;85.69;102716.38;5065705;28;20027;-86
2023/05/27 03:24:18;;;;;;;13.50;5.05;;;;;;;4.86;85.50;102717.88;5055892;28;20035;-86
2023/05/27 03:26:44;;;;;;;15.25;5.72;;;;;;;4.85;85.82;102716.16;5043316;28;20035;-88
2023/05/27 03:29:09;;;;;;;13.50;5.53;;;;;;;4.81;85.83;102718.22;5050452;28;20029;-85
2023/05/27 03:31:35;;;;;;;13.18;5.18;;;;;;;4.76;85.22;102711.53;5043162;28;20048;-86
2023/05/27 03:34:00;;;;;;;15.38;5.15;;;;;;;4.84;85.38;102719.78;5047878;28;20028;-86
2023/05/27 03:36:30;;;;;;;12.32;5.15;;;;;;;4.83;85.42;102713.63;5040769;28;20029;-88
2023/05/27 03:39:11;;;;;;;14.57;4.95;;;;;;;4.88;85.83;102715.94;5051366;28;20060;-86
2023/05/27 03:41:36;;;;;;;18.90;5.50;;;;;;;4.85;85.52;102722.34;5049901;28;20025;-87
2023/05/27 03:47:20;;;;;;;12.77;5.05;;;;;;;4.97;85.75;102719.75;5060543;23;20630;-86
2023/05/27 03:49:45;;;;;;;15.10;5.05;;;;;;;5.06;85.71;102715.53;5045691;28;20029;-86
2023/05/27 03:52:11;;;;;;;18.55;5.47;;;;;;;5.11;85.38;102716.06;5038432;28;20087;-86
2023/05/27 03:54:45;;;;;;;16.63;5.50;;;;;;;5.12;85.38;102713.25;5047384;28;20033;-86
2023/05/27 03:57:14;;;;;;;13.63;4.90;;;;;;;5.12;84.85;102715.94;5043064;28;20106;-87
2023/05/27 03:59:39;;;;;;;14.15;5.03;;;;;;;5.14;85.01;102708.66;5047686;28;20044;-87
2023/05/27 04:02:07;;;;;;;18.15;5.30;;;;;;;5.16;84.39;102698.72;5047323;28;20490;-87
2023/05/27 04:04:38;;;;;;;13.77;5.68;;;;;;;5.25;84.39;102707.88;5049431;28;20114;-87
2023/05/27 04:07:15;;;;;;;10.27;5.30;;;;;;;5.27;84.74;102695.25;5045600;28;20028;-85
2023/05/27 04:09:40;;;;;;;12.77;5.18;;;;;;;5.34;84.24;102700.09;5051158;28;20045;-87
2023/05/27 04:12:07;;;;;;;14.10;4.93;;;;;;;5.35;84.09;102694.66;5048074;28;20448;-87
2023/05/27 04:14:35;;;;;;;13.10;5.15;;;;;;;5.42;83.46;102692.38;5034148;28;20037;-87
2023/05/27 04:17:11;;;;;;;13.98;5.28;;;;;;;5.53;83.33;102689.72;5052011;28;20029;-87
2023/05/27 04:19:36;;;;;;;14.65;4.95;;;;;;;5.56;83.18;102677.97;5051183;28;20036;-86
2023/05/27 04:22:09;;;;;;;;;;;;;;;5.65;83.42;102687.09;5052612;28;20396;-87
2023/05/27 04:24:44;;;;;;;;;;;;;;;;;;;;;
2023/05/27 04:27:10;;;;;;;11.85;5.20;;;;;;;5.96;82.80;102700.72;5044599;28;20037;-87
2023/05/27 04:29:38;;;;;;;11.45;4.90;;;;;;;6.36;81.60;102687.72;5052965;28;20051;-87
2023/05/27 04:32:20;;;;;;;15.93;5.30;;;;;;;6.64;79.73;102695.34;5051182;28;20048;-87
2023/05/27 04:34:58;;;;;;;12.80;5.63;;;;;;;6.64;79.22;102700.69;5049717;28;20029;-87
2023/05/27 04:37:33;;;;;;;10.98;4.82;;;;;;;6.89;78.37;102693.31;5070443;28;20033;-87
2023/05/27 04:40:07;;;;;;;16.60;5.05;;;;;;;6.84;78.67;102696.38;5067277;28;20543;-87
2023/05/27 04:42:36;;;;;;;17.60;5.57;;;;;;;6.80;78.58;102697.59;5075875;23;20415;-87
2023/05/27 04:45:55;;;;;;;11.85;5.13;;;;;;;6.79;78.56;102694.09;5050875;28;20092;-87
2023/05/27 04:48:23;;;;;;;15.40;5.32;;;;;;;6.79;78.90;102694.09;5051565;28;20415;-88
2023/05/27 04:50:48;;;;;;;10.35;4.88;;;;;;;6.82;78.67;102701.88;5053251;28;20341;-87
2023/05/27 04:53:20;;;;;;;;;;;;;;;6.80;78.80;102693.13;5054104;28;20021;-88
2023/05/27 04:55:45;;;;;;;18.23;5.32;;;;;;;6.82;78.67;102701.00;5051188;28;20011;-88
2023/05/27 04:58:11;;;;;;;;;;;;;;;6.85;79.19;102698.06;5051718;28;20403;-88
2023/05/27 05:01:16;;;;;;;18.23;4.87;;;;;;;6.93;79.00;102689.41;5030350;23;20359;-88
2023/05/27 05:04:19;;;;;;;15.60;5.20;;;;;;;7.74;76.59;102683.50;5020227;28;20394;-87
2023/05/27 05:07:14;;;;;;;15.10;5.38;;;;;;;8.60;73.67;102680.47;5027125;28;20045;-88
2023/05/27 05:09:40;;;;;;;12.82;5.40;;;;;;;9.37;70.96;102675.25;5035245;28;20109;-88
2023/05/27 05:12:33;;;;;;;;;;;;;;;10.02;68.35;102674.47;5033742;28;20033;-87
2023/05/27 05:15:17;;;;;;;11.93;4.43;;;;;;;10.68;65.84;102679.81;5026569;28;19917;-86
2023/05/27 05:17:57;;;;;;;10.63;5.00;;;;;;;10.87;65.09;102675.28;5030429;28;20023;-86
2023/05/27 05:20:23;;;;;;;14.38;4.72;;;;;;;11.21;64.25;102672.69;5038943;28;20362;-87
2023/05/27 05:22:48;;;;;;;13.02;4.68;;;;;;;11.47;63.11;102676.47;5027843;28;20057;-86
2023/05/27 05:25:14;;;;;;;16.30;4.95;;;;;;;11.27;63.56;102676.66;5029051;28;20025;-86
2023/05/27 05:27:42;;;;;;;15.25;5.10;;;;;;;11.49;63.10;102674.41;5028626;28;20111;-87
2023/05/27 05:30:11;;;;;;;13.77;5.20;;;;;;;11.84;62.52;102672.59;5028845;28;20022;-88
2023/05/27 05:32:45;;;;;;;12.00;4.82;;;;;;;12.06;61.66;102670.38;5026466;28;20064;-88
2023/05/27 05:35:13;;;;;;;19.55;5.03;;;;;;;12.11;61.43;102668.88;5023399;28;20037;-89
2023/05/27 05:38:10;;;;;;;13.88;5.10;;;;;;;11.86;62.35;102664.38;5032254;28;20029;-87
2023/05/27 05:40:37;;;;;;;15.87;5.00;;;;;;;12.28;60.91;102660.84;5031472;28;20037;-89
2023/05/27 05:43:11;;;;;;;18.15;5.55;;;;;;;12.04;61.95;102661.59;5033586;28;20280;-89
2023/05/27 05:48:11;;;;;;;17.48;5.10;;;;;;;12.27;61.07;102657.31;5055861;23;20056;-87
2023/05/27 05:50:37;;;;;;;13.48;5.00;;;;;;;12.75;59.75;102659.44;5020563;28;20523;-87
2023/05/27 05:53:09;;;;;;;14.32;5.28;;;;;;;13.12;58.06;102662.69;5047970;28;20052;-87
2023/05/27 05:55:35;;;;;;;12.70;5.10;;;;;;;13.41;57.94;102674.88;5046072;28;20033;-89
2023/05/27 06:00:31;;;;;;;15.85;5.43;;;;;;;13.21;57.36;102658.13;4985215;28;20151;-85
2023/05/27 06:03:08;;;;;;;17.25;5.22;;;;;;;13.57;57.78;102658.59;4986319;28;20031;-87
2023/05/27 06:05:34;;;;;;;14.30;5.03;;;;;;;13.75;56.68;102666.53;4992022;28;20374;-87
2023/05/27 06:07:59;;;;;;;16.60;5.43;;;;;;;13.73;56.74;102663.16;4992581;28;20458;-87
2023/05/27 06:10:25;;;;;;;14.93;4.95;;;;;;;14.00;56.17;102669.13;4986251;28;20030;-85
2023/05/27 06:12:53;;;;;;;16.40;5.28;;;;;;;14.67;55.56;102665.06;4988503;28;20035;-84
2023/05/27 06:15:36;;;;;;;17.20;5.20;;;;;;;15.12;53.38;102662.53;4990059;28;20033;-86
2023/05/27 06:18:14;;;;;;;17.40;4.97;;;;;;;15.88;51.43;102666.22;4985664;28;20034;-87
2023/05/27 06:20:56;;;;;;;13.18;4.70;;;;;;;16.39;50.00;102662.69;4993458;28;20037;-87
2023/05/27 06:23:28;;;;;;;15.35;4.70;;;;;;;15.40;52.96;102658.38;4991481;28;20023;-89
2023/05/27 06:26:11;;;;;;;16.02;5.43;;;;;;;15.65;52.19;102669.84;4983580;28;20674;-87
2023/05/27 06:28:46;;;;;;;14.20;5.05;;;;;;;16.92;49.04;102662.38;4990520;28;20034;-88
2023/05/27 06:31:11;;;;;;;13.45;4.55;;;;;;;17.24;48.12;102653.91;4991930;28;20039;-88
2023/05/27 06:34:26;;;;;;;18.55;5.35;;;;;;;16.99;48.49;102670.63;4987304;28;20041;-88
2023/05/27 06:36:52;;;;;;;14.60;4.95;;;;;;;17.65;47.32;102660.47;4985879;28;20078;-87
2023/05/27 06:39:20;;;;;;;17.95;5.10;;;;;;;18.38;45.48;102661.84;4991269;28;20180;-85
2023/05/27 06:41:48;;;;;;;16.10;5.07;;;;;;;19.08;43.85;102664.31;4987737;28;20042;-78
2023/05/27 06:44:14;;;;;;;15.05;5.70;;;;;;;18.76;43.92;102666.78;5004485;28;20030;-85
2023/05/27 06:46:42;;;;;;;14.35;5.13;;;;;;;17.59;46.10;102662.09;4990051;28;20034;-81
2023/05/27 06:49:12;;;;;;;15.65;5.35;;;;;;;17.73;46.47;102655.69;5015745;28;20017;-91
2023/05/27 06:51:44;;;;;;;15.15;4.85;;;;;;;18.74;44.75;102663.41;5028631;23;20030;-93
2023/05/27 06:54:09;;;;;;;13.02;4.57;;;;;;;19.28;43.61;102652.53;5050186;28;20029;-91
2023/05/27 06:57:12;;;;;;;11.80;4.68;;;;;;;19.16;43.44;102646.88;5264916;22;20015;-93
2023/05/27 06:59:40;;;;;;;11.52;4.93;;;;;;;19.72;42.42;102659.22;5064501;28;20047;-90
2023/05/27 07:02:09;;;;;;;15.95;5.00;;;;;;;20.10;41.70;102643.94;5037212;28;20064;-82
2023/05/27 07:04:34;;;;;;;11.93;4.90;;;;;;;20.35;40.80;102652.25;5047842;28;20428;-83
2023/05/27 07:07:00;;;;;;;14.80;5.00;;;;;;;20.04;41.62;102653.00;5047712;28;20047;-85
2023/05/27 07:09:26;;;;;;;15.55;5.00;;;;;;;20.26;41.45;102642.63;5044416;28;20375;-87
2023/05/27 07:11:52;;;;;;;15.82;4.95;;;;;;;21.09;39.92;102637.22;5048882;28;20175;-87
2023/05/27 07:14:23;;;;;;;14.93;5.32;;;;;;;20.68;39.82;102634.78;5047555;28;20040;-86
2023/05/27 07:16:49;;;;;;;12.18;4.63;;;;;;;21.28;38.87;102636.19;5045326;28;20075;-87
2023/05/27 07:19:14;;;;;;;14.15;5.63;;;;;;;21.25;38.96;102622.97;5045688;28;20488;-85
2023/05/27 07:21:46;;;;;;;11.77;4.95;;;;;;;20.89;39.68;102630.00;5048535;28;20031;-87
2023/05/27 07:24:14;;;;;;;13.13;4.95;;;;;;;21.33;39.24;102619.94;5045295;28;20040;-85
2023/05/27 07:26:40;;;;;;;11.07;4.95;;;;;;;20.43;39.95;102623.78;5046976;28;20365;-86
2023/05/27 07:29:08;;;;;;;16.25;5.50;;;;;;;21.48;38.80;102629.69;5029375;28;20025;-85
2023/05/27 07:31:33;;;;;;;14.63;5.13;;;;;;;21.29;39.04;102610.50;5047698;28;20090;-85
2023/05/27 07:33:59;;;;;;;11.80;5.25;;;;;;;21.51;39.17;102616.38;5046791;28;20594;-84
2023/05/27 07:36:24;;;;;;;12.85;5.13;;;;;;;22.38;37.02;102613.63;5054290;28;20108;-86
2023/05/27 07:38:50;;;;;;;14.70;5.45;;;;;;;22.45;36.47;102611.63;5049446;28;20071;-84
2023/05/27 07:41:15;;;;;;;15.05;5.20;;;;;;;22.91;35.79;102611.13;5046297;28;20020;-87
2023/05/27 07:43:40;;;;;;;14.27;5.25;;;;;;;22.62;35.94;102613.69;5042303;28;20372;-87
2023/05/27 07:46:06;;;;;;;15.18;5.07;;;;;;;21.60;37.76;102603.22;5039052;28;20112;-87
2023/05/27 07:48:31;;;;;;;14.57;4.85;;;;;;;21.73;38.25;102602.22;5042785;28;20445;-87
2023/05/27 07:50:56;;;;;;;13.70;5.13;;;;;;;22.41;36.32;102613.97;5038061;28;20090;-86
2023/05/27 07:53:22;;;;;;;20.20;6.07;;;;;;;22.64;35.92;102611.53;5051729;28;20044;-84
2023/05/27 07:55:47;;;;;;;14.57;5.93;;;;;;;21.89;37.50;102611.72;5057225;28;20028;-86
2023/05/27 07:58:15;;;;;;;17.08;5.45;;;;;;;22.16;37.02;102596.81;5048829;28;20099;-85
2023/05/27 08:00:40;;;;;;;14.52;5.05;;;;;;;23.45;35.57;102598.09;5048339;28;20025;-85
2023/05/27 08:03:06;;;;;;;14.88;5.18;;;;;;;23.97;33.72;102604.69;5040798;28;20041;-85
2023/05/27 08:05:32;;;;;;;15.52;5.50;;;;;;;22.91;35.92;102595.47;5049590;28;20029;-85
2023/05/27 08:07:57;;;;;;;17.27;5.47;;;;;;;23.08;35.32;102598.34;5043527;28;20021;-82
2023/05/27 08:10:23;;;;;;;13.98;5.28;;;;;;;23.36;35.21;102593.22;5047015;28;20029;-83
2023/05/27 08:12:51;;;;;;;14.32;5.40;;;;;;;23.10;35.03;102587.97;5049250;28;20047;-85
2023/05/27 08:15:19;;;;;;;13.48;5.60;;;;;;;24.31;33.49;102584.66;5048800;28;20405;-84
2023/05/27 08:17:44;;;;;;;12.07;5.00;;;;;;;24.91;32.67;102577.69;5041357;28;20029;-86
2023/05/27 08:20:10;;;;;;;13.07;4.72;;;;;;;24.58;32.22;102560.06;5043371;28;20048;-86
2023/05/27 08:22:37;;;;;;;16.10;5.35;;;;;;;24.73;33.08;102555.91;5052628;28;20040;-85
2023/05/27 08:25:03;;;;;;;15.05;5.65;;;;;;;25.52;31.17;102565.03;5053216;28;20060;-86
2023/05/27 08:27:57;;;;;;;14.02;5.03;;;;;;;24.45;32.91;102547.47;5050858;28;20427;-85
2023/05/27 08:30:26;;;;;;;13.68;5.30;;;;;;;24.58;33.05;102549.06;5047156;28;20033;-84
2023/05/27 08:32:51;;;;;;;15.85;6.53;;;;;;;24.68;32.89;102551.13;5050688;28;20037;-84
2023/05/27 08:35:18;;;;;;;14.70;5.32;;;;;;;25.62;31.10;102542.25;5146466;23;20132;-83
2023/05/27 08:37:44;;;;;;;15.65;5.15;;;;;;;25.53;30.68;102548.25;5034550;28;20025;-83
2023/05/27 08:40:16;;;;;;;17.38;5.32;;;;;;;24.26;31.85;102544.13;5042515;28;20060;-84
2023/05/27 08:42:44;;;;;;;9.55;4.53;;;;;;;24.52;32.55;102536.31;5046860;28;20472;-83
2023/05/27 08:45:09;;;;;;;13.50;5.18;;;;;;;25.25;31.70;102536.28;5033400;28;20123;-83
2023/05/27 08:47:35;;;;;;;10.07;4.50;;;;;;;25.48;32.28;102536.31;5056037;28;20044;-83
2023/05/27 08:50:01;;;;;;;12.38;5.15;;;;;;;24.68;32.41;102538.22;5038981;28;20013;-85
2023/05/27 08:52:29;;;;;;;13.30;4.93;;;;;;;25.66;30.88;102524.09;5051285;28;20040;-84
2023/05/27 08:54:56;;;;;;;14.15;4.93;;;;;;;25.56;30.80;102516.56;5051721;28;20056;-84
2023/05/27 08:57:23;;;;;;;13.63;5.00;;;;;;;25.75;30.05;102511.53;5027017;28;20155;-84
2023/05/27 08:59:50;;;;;;;13.77;5.05;;;;;;;26.02;30.16;102510.69;5032852;28;20048;-84
2023/05/27 09:02:18;;;;;;;12.52;4.68;;;;;;;26.93;28.79;102516.38;5056765;28;20047;-84
2023/05/27 09:04:51;;;;;;;10.43;4.65;;;;;;;25.88;28.92;102516.63;5057990;28;20037;-84
2023/05/27 09:07:22;;;;;;;12.70;4.97;;;;;;;25.41;30.38;102511.69;5068253;28;20021;-84
2023/05/27 09:09:57;;;;;;;13.68;5.30;;;;;;;24.80;31.49;102505.06;5053628;28;20096;-84
2023/05/27 09:12:29;;;;;;;15.82;5.00;;;;;;;25.23;30.72;102497.13;5052843;28;20029;-82
2023/05/27 09:14:54;;;;;;;13.73;5.07;;;;;;;24.60;31.92;102502.84;5031731;28;20028;-84
2023/05/27 09:17:27;;;;;;;14.48;5.38;;;;;;;26.27;29.74;102496.28;5051135;28;20078;-83
2023/05/27 09:19:53;;;;;;;13.82;4.90;;;;;;;26.70;28.41;102493.56;5041255;28;20057;-84
2023/05/27 09:22:22;;;;;;;16.70;4.97;;;;;;;26.65;28.73;102496.31;5047090;28;20052;-84
2023/05/27 09:24:48;;;;;;;17.27;5.10;;;;;;;26.40;29.11;102497.78;5043472;28;20072;-84
2023/05/27 09:27:13;;;;;;;12.45;4.95;;;;;;;25.25;30.27;102486.66;5049656;28;20480;-83
2023/05/27 09:29:40;;;;;;;11.95;5.03;;;;;;;26.13;30.02;102490.38;5042789;28;20017;-82
2023/05/27 09:32:07;;;;;;;11.63;4.80;;;;;;;26.99;28.65;102492.38;5046715;28;20384;-84
2023/05/27 09:34:38;;;;;;;12.57;4.57;;;;;;;27.08;28.11;102486.03;5046417;28;20040;-82
2023/05/27 09:37:04;;;;;;;13.32;4.68;;;;;;;27.43;27.81;102496.69;5047816;28;20033;-83
2023/05/27 09:39:29;;;;;;;12.90;5.03;;;;;;;28.14;26.60;102493.25;5045112;28;20531;-84
2023/05/27 09:41:58;;;;;;;14.23;4.90;;;;;;;28.52;25.78;102483.78;5034268;28;20033;-84
2023/05/27 09:44:28;;;;;;;13.77;4.63;;;;;;;27.88;26.75;102484.09;5046973;28;20041;-84
2023/05/27 09:46:54;;;;;;;14.02;4.97;;;;;;;27.83;26.60;102473.00;5051760;28;20029;-83
2023/05/27 09:49:19;;;;;;;12.30;4.63;;;;;;;26.62;28.12;102472.78;5044253;28;20013;-84
2023/05/27 09:51:45;;;;;;;12.15;4.53;;;;;;;26.59;28.55;102473.31;5013852;28;20079;-84
2023/05/27 09:54:11;;;;;;;14.50;4.68;;;;;;;26.41;28.54;102474.59;5046775;28;20040;-83
2023/05/27 09:56:36;;;;;;;16.90;4.82;;;;;;;27.79;27.06;102471.88;5026467;28;20033;-83
2023/05/27 09:59:05;;;;;;;13.60;4.45;;;;;;;28.27;25.53;102478.00;5050956;28;20049;-84
2023/05/27 10:01:33;;;;;;;10.35;3.95;;;;;;;28.66;25.18;102472.94;5021379;28;20112;-83
2023/05/27 10:03:58;;;;;;;16.02;4.72;;;;;;;28.04;25.87;102465.53;5015739;28;20032;-83
2023/05/27 10:06:26;;;;;;;11.60;4.55;;;;;;;27.53;26.99;102452.50;5034123;28;20136;-83
2023/05/27 10:08:55;;;;;;;12.88;4.88;;;;;;;26.60;27.15;102446.53;5066915;28;20488;-83
2023/05/27 10:11:26;;;;;;;17.08;5.20;;;;;;;25.71;28.81;102452.47;5050524;28;20246;-83
2023/05/27 10:13:54;;;;;;;12.07;4.60;;;;;;;26.53;27.72;102445.94;5057970;28;20092;-83
2023/05/27 10:16:21;;;;;;;13.23;4.70;;;;;;;26.93;27.69;102448.09;5052342;28;20029;-83
2023/05/27 10:18:52;;;;;;;11.50;4.43;;;;;;;26.98;26.92;102441.78;5043386;28;20488;-84
2023/05/27 10:21:18;;;;;;;11.13;4.03;;;;;;;28.34;25.78;102435.34;5046837;28;20112;-82
2023/05/27 10:24:04;;;;;;;13.05;5.07;;;;;;;28.81;24.83;102431.38;5050019;28;20484;-82
2023/05/27 10:26:35;;;;;;;12.70;4.70;;;;;;;28.42;24.66;102432.00;5046233;28;20072;-83
2023/05/27 10:29:11;;;;;;;13.05;4.68;;;;;;;29.15;23.74;102438.16;5041638;28;20029;-81
2023/05/27 10:31:49;;;;;;;12.70;4.43;;;;;;;28.19;25.30;102436.19;5044938;28;20071;-82
2023/05/27 10:34:14;;;;;;;13.55;4.70;;;;;;;28.42;25.15;102432.00;5045445;28;20112;-82
2023/05/27 10:36:40;;;;;;;12.27;4.53;;;;;;;28.51;24.45;102416.47;5049059;28;20133;-82
2023/05/27 10:39:06;;;;;;;13.85;4.40;;;;;;;27.64;25.24;102415.44;5043396;28;20027;-82
2023/05/27 10:41:43;;;;;;;8.90;3.95;;;;;;;28.21;24.75;102425.69;5048353;28;20469;-82
2023/05/27 10:44:09;;;;;;;10.20;4.45;;;;;;;27.68;25.08;102418.47;5044180;28;20349;-81
2023/05/27 10:46:42;;;;;;;12.85;4.32;;;;;;;27.86;24.87;102414.34;5050747;28;20048;-82
2023/05/27 10:49:14;;;;;;;12.00;4.53;;;;;;;27.14;25.48;102408.69;5047613;28;20021;-83
2023/05/27 10:51:41;;;;;;;8.95;4.00;;;;;;;28.24;24.75;102412.09;5040617;28;20060;-81
2023/05/27 10:54:07;;;;;;;13.05;4.28;;;;;;;29.45;23.46;102406.66;5047506;28;20032;-81
2023/05/27 10:56:33;;;;;;;11.88;4.20;;;;;;;30.16;22.40;102408.31;5041674;28;20226;-81
2023/05/27 10:58:59;;;;;;;11.75;4.20;;;;;;;29.36;23.76;102402.81;5048306;28;20244;-81
2023/05/27 11:01:25;;;;;;;12.75;4.43;;;;;;;28.06;23.61;102405.19;5010899;28;20013;-81
2023/05/27 11:03:50;;;;;;;11.80;4.43;;;;;;;27.34;24.34;102405.97;5031493;28;20031;-82
2023/05/27 11:06:19;;;;;;;9.82;4.00;;;;;;;27.86;24.06;102394.97;5040957;28;20024;-82
2023/05/27 11:08:44;;;;;;;9.75;4.00;;;;;;;27.81;24.18;102403.25;5042904;28;20029;-82
2023/05/27 11:11:13;;;;;;;12.70;4.70;;;;;;;27.45;25.10;102386.63;5045492;28;20021;-81
2023/05/27 11:13:42;;;;;;;10.50;4.05;;;;;;;28.07;24.77;102390.22;5049177;28;20025;-82
2023/05/27 11:16:07;;;;;;;11.30;4.80;;;;;;;28.47;23.90;102373.00;5040556;28;20051;-83
2023/05/27 11:18:51;;;;;;;10.35;4.20;;;;;;;27.32;25.20;102375.00;5041809;28;20028;-82
2023/05/27 11:21:17;;;;;;;11.88;4.63;;;;;;;27.92;24.48;102368.94;5042407;28;20025;-82
2023/05/27 11:23:44;;;;;;;11.82;5.05;;;;;;;28.18;24.02;102360.63;5039853;28;20021;-82
2023/05/27 11:26:16;;;;;;;9.25;4.40;;;;;;;28.03;24.44;102366.97;5044872;28;20099;-81
2023/05/27 11:28:50;;;;;;;9.50;4.53;;;;;;;28.24;24.71;102370.56;5045933;28;20033;-82
2023/05/27 11:31:16;;;;;;;13.65;4.70;;;;;;;28.27;24.47;102360.88;5047133;28;20036;-83
2023/05/27 11:33:42;;;;;;;11.70;4.45;;;;;;;28.34;24.57;102358.63;5043610;28;20033;-80
2023/05/27 11:36:08;;;;;;;11.95;5.05;;;;;;;28.66;24.51;102348.25;5047462;28;20404;-80
2023/05/27 11:39:06;;;;;;;10.93;4.50;;;;;;;29.07;23.60;102352.78;5047412;28;20028;-82
2023/05/27 11:41:32;;;;;;;14.30;4.60;;;;;;;28.71;23.12;102348.25;4997850;28;20041;-91
2023/05/27 11:44:09;;;;;;;9.48;4.30;;;;;;;28.99;23.77;102343.13;5050160;28;20091;-83
2023/05/27 11:46:39;;;;;;;11.68;4.15;;;;;;;28.98;23.32;102341.47;5111561;22;20045;-85
2023/05/27 11:49:14;;;;;;;15.15;4.88;;;;;;;28.64;24.31;102326.41;5047997;28;20556;-85
2023/05/27 11:51:50;;;;;;;11.60;4.85;;;;;;;27.83;25.06;102334.63;5044580;28;20037;-87
2023/05/27 11:54:20;;;;;;;11.90;4.43;;;;;;;28.40;24.41;102329.00;5046639;28;20086;-87